Time;durP1;ratioP1;P1;durP2;ratioP2;P2;SDS_P1;SDS_P2;PMS_P1;PMS_P2;Temp;Humidity;BMP_temperature;BMP_pressure;BME280_temperature;BME280_humidity;BME280_pressure;Samples;Min_cycle;Max_cycle;Signal;HPM_P1;HPM_P2
2022/01/17 00:00:49;;;;;;;27.17;6.40;;;;;;;9.19;59.40;103122.09;5252559;28;20455;-45
2022/01/17 00:03:24;;;;;;;24.70;5.78;;;;;;;9.22;59.39;103131.63;5248162;28;20410;-45
2022/01/17 00:05:57;;;;;;;24.92;5.78;;;;;;;9.22;59.24;103137.75;5246711;28;20787;-45
2022/01/17 00:08:29;;;;;;;26.52;4.72;;;;;;;9.12;59.30;103138.34;5246607;28;20782;-46
2022/01/17 00:11:01;;;;;;;19.80;4.93;;;;;;;9.17;59.33;103142.44;5249182;28;20419;-44
2022/01/17 00:13:34;;;;;;;22.13;5.43;;;;;;;9.14;59.36;103139.13;5249165;28;20423;-45
2022/01/17 00:16:10;;;;;;;19.92;5.75;;;;;;;9.16;59.30;103143.34;5246320;28;20429;-45
2022/01/17 00:19:28;;;;;;;20.50;5.32;;;;;;;9.16;59.31;103124.91;5247233;28;20883;-45
2022/01/17 00:21:59;;;;;;;19.00;4.60;;;;;;;9.12;59.28;103120.75;5246679;28;20406;-45
2022/01/17 00:24:32;;;;;;;27.40;6.07;;;;;;;9.15;59.18;103127.63;5249131;28;20407;-43
2022/01/17 00:27:04;;;;;;;30.08;5.63;;;;;;;9.14;59.23;103142.59;5250038;28;20413;-44
2022/01/17 00:29:37;;;;;;;19.40;4.53;;;;;;;9.13;59.20;103145.31;5248647;28;20398;-44
2022/01/17 00:32:10;;;;;;;29.00;5.68;;;;;;;9.11;59.21;103137.50;5252528;28;20887;-48
2022/01/17 00:34:44;;;;;;;15.52;4.28;;;;;;;9.10;59.09;103141.03;5248518;28;20406;-43
2022/01/17 00:37:16;;;;;;;23.15;3.95;;;;;;;9.09;59.15;103134.09;5245407;28;20474;-49
2022/01/17 00:39:49;;;;;;;20.23;4.70;;;;;;;9.08;59.13;103124.50;5243722;28;20424;-44
2022/01/17 00:42:21;;;;;;;14.90;4.07;;;;;;;9.09;59.10;103115.63;5243447;28;20449;-45
2022/01/17 00:44:54;;;;;;;25.48;5.68;;;;;;;9.10;58.99;103101.50;5245152;28;20771;-44
2022/01/17 00:47:26;;;;;;;20.20;5.45;;;;;;;9.09;58.93;103104.25;5249995;28;20517;-45
2022/01/17 00:50:00;;;;;;;18.98;4.95;;;;;;;9.05;58.79;103100.94;5248060;28;20428;-45
2022/01/17 00:52:32;;;;;;;21.57;4.63;;;;;;;9.03;58.68;103107.22;5248335;28;20414;-46
2022/01/17 00:55:05;;;;;;;18.55;4.28;;;;;;;8.99;58.74;103122.34;5247535;28;20432;-48
2022/01/17 00:57:38;;;;;;;33.10;6.07;;;;;;;8.99;58.63;103106.53;5244042;28;20432;-44
2022/01/17 01:00:12;;;;;;;15.00;4.45;;;;;;;8.95;58.47;103115.53;5247501;28;20398;-46
2022/01/17 01:02:46;;;;;;;20.83;4.63;;;;;;;8.89;58.56;103127.28;5243506;28;20382;-46
2022/01/17 01:05:20;;;;;;;19.45;4.35;;;;;;;8.85;58.55;103127.50;5238509;28;20399;-44
2022/01/17 01:07:54;;;;;;;22.58;5.32;;;;;;;8.84;58.52;103128.44;5245107;28;20419;-46
2022/01/17 01:10:26;;;;;;;14.85;4.88;;;;;;;8.81;58.58;103139.16;5247890;28;20421;-48
2022/01/17 01:12:58;;;;;;;19.17;4.77;;;;;;;8.76;58.43;103129.72;5245064;28;20473;-54
2022/01/17 01:15:47;;;;;;;27.05;5.43;;;;;;;8.68;58.68;103131.06;5246165;28;20418;-45
2022/01/17 01:18:37;;;;;;;20.20;5.22;;;;;;;8.72;58.46;103146.59;5247356;28;20405;-48
2022/01/17 01:21:43;;;;;;;20.40;5.03;;;;;;;8.75;58.48;103150.84;5243776;28;20451;-45
2022/01/17 01:29:59;;;;;;;26.65;6.07;;;;;;;8.61;58.47;103170.03;5248254;28;20422;-43
2022/01/17 01:32:38;;;;;;;27.02;5.40;;;;;;;8.54;58.39;103169.47;5252192;28;20425;-44
2022/01/17 01:35:14;;;;;;;21.67;6.38;;;;;;;8.46;58.47;103171.69;5252497;28;20390;-43
2022/01/17 01:37:48;;;;;;;24.35;4.93;;;;;;;8.40;58.48;103160.63;5240069;28;20426;-54
2022/01/17 01:40:22;;;;;;;26.67;5.13;;;;;;;8.34;58.45;103158.25;5250344;28;20775;-44
2022/01/17 01:42:55;;;;;;;18.30;4.65;;;;;;;8.28;58.45;103167.31;5245235;28;20398;-44
2022/01/17 01:45:28;;;;;;;20.85;5.10;;;;;;;8.23;58.55;103161.41;5240287;28;20426;-45
2022/01/17 01:48:00;;;;;;;21.58;5.28;;;;;;;8.18;58.55;103150.28;5247738;28;20422;-44
2022/01/17 01:50:32;;;;;;;21.30;5.20;;;;;;;8.14;58.45;103151.34;5247720;28;20452;-46
2022/01/17 01:53:06;;;;;;;21.95;5.15;;;;;;;8.08;58.48;103141.97;5244657;28;20494;-49
2022/01/17 01:55:38;;;;;;;19.90;5.75;;;;;;;8.04;58.51;103137.81;5246888;28;20398;-44
2022/01/17 01:58:11;;;;;;;18.00;4.57;;;;;;;8.01;58.55;103143.22;5248815;28;20414;-48
2022/01/17 02:00:43;;;;;;;27.35;5.43;;;;;;;7.97;58.60;103142.53;5241563;28;20411;-52
2022/01/17 02:03:16;;;;;;;24.95;5.68;;;;;;;7.94;58.60;103145.31;5244738;28;20409;-43
2022/01/17 02:05:48;;;;;;;25.38;5.03;;;;;;;7.92;58.54;103148.94;5245193;28;20421;-47
2022/01/17 02:08:22;;;;;;;24.52;6.40;;;;;;;7.88;58.69;103147.41;5242276;28;20510;-45
2022/01/17 02:10:54;;;;;;;27.60;5.82;;;;;;;7.83;58.58;103164.28;5248458;28;20911;-46
2022/01/17 02:13:27;;;;;;;24.58;5.45;;;;;;;7.77;58.65;103164.56;5240572;28;20427;-47
2022/01/17 02:16:03;;;;;;;20.20;5.97;;;;;;;7.75;58.53;103168.19;5246673;28;20408;-44
2022/01/17 02:18:37;;;;;;;17.70;5.57;;;;;;;7.71;58.65;103172.75;5249252;28;20431;-44
2022/01/17 02:21:18;;;;;;;28.58;8.02;;;;;;;7.60;58.82;103172.41;5243050;28;20985;-43
2022/01/17 02:23:53;;;;;;;26.00;6.25;;;;;;;7.63;58.81;103172.25;5240362;28;20410;-44
2022/01/17 02:26:27;;;;;;;27.55;5.55;;;;;;;7.58;58.92;103171.63;5234715;28;21019;-45
2022/01/17 02:29:00;;;;;;;26.48;6.45;;;;;;;7.59;58.73;103162.81;5246434;28;20436;-44
2022/01/17 02:31:32;;;;;;;25.77;6.10;;;;;;;7.56;58.89;103158.56;5249020;28;20977;-44
2022/01/17 02:34:04;;;;;;;32.55;6.47;;;;;;;7.53;58.89;103163.13;5247470;28;20929;-43
2022/01/17 02:36:38;;;;;;;30.38;5.93;;;;;;;7.50;59.13;103156.22;5247584;28;20483;-43
2022/01/17 02:39:11;;;;;;;32.83;6.70;;;;;;;7.47;59.01;103152.88;5241761;28;20779;-45
2022/01/17 02:41:48;;;;;;;29.20;6.60;;;;;;;7.46;59.15;103151.16;5237499;28;20716;-44
2022/01/17 02:44:21;;;;;;;29.53;7.30;;;;;;;7.44;59.14;103150.41;5244574;28;20489;-45
2022/01/17 02:46:53;;;;;;;32.38;7.88;;;;;;;7.42;59.35;103160.13;5251117;28;20414;-44
2022/01/17 02:49:25;;;;;;;34.55;6.43;;;;;;;7.41;59.30;103158.44;5248809;28;20497;-46
2022/01/17 02:51:59;;;;;;;27.92;6.55;;;;;;;7.38;59.39;103155.00;5243917;28;20422;-44
2022/01/17 02:54:31;;;;;;;23.27;6.00;;;;;;;7.41;59.55;103147.91;5247338;28;21168;-46
2022/01/17 02:57:06;;;;;;;26.15;6.97;;;;;;;7.40;59.55;103144.41;5236678;28;20777;-46
2022/01/17 02:59:39;;;;;;;38.92;6.15;;;;;;;7.40;59.59;103136.53;5245269;28;20845;-43
2022/01/17 03:02:11;;;;;;;24.50;7.32;;;;;;;7.38;59.72;103133.97;5243128;28;20428;-44
2022/01/17 03:04:43;;;;;;;30.42;6.32;;;;;;;7.37;59.78;103132.28;5245998;28;20411;-45
2022/01/17 03:07:17;;;;;;;32.10;7.50;;;;;;;7.38;59.75;103123.47;5239339;28;20418;-45
2022/01/17 03:10:01;;;;;;;25.10;6.07;;;;;;;7.39;59.92;103127.78;5245262;28;20428;-55
2022/01/17 03:12:34;;;;;;;29.02;6.93;;;;;;;7.41;60.10;103126.88;5242672;28;20425;-43
2022/01/17 03:15:08;;;;;;;18.80;4.93;;;;;;;7.41;60.16;103124.25;5239613;28;22445;-43
2022/01/17 03:17:41;;;;;;;29.58;7.35;;;;;;;7.39;60.28;103119.91;5245211;28;20756;-44
2022/01/17 03:20:14;;;;;;;29.27;5.90;;;;;;;7.41;60.37;103116.38;5239304;28;20399;-44
2022/01/17 03:22:47;;;;;;;36.90;7.53;;;;;;;7.41;60.45;103121.63;5245061;28;20484;-44
2022/01/17 03:25:19;;;;;;;28.67;7.03;;;;;;;7.42;60.41;103120.69;5240154;28;20505;-44
2022/01/17 03:27:52;;;;;;;19.15;5.70;;;;;;;7.42;60.57;103128.59;5245801;28;20907;-44
2022/01/17 03:30:24;;;;;;;30.63;6.93;;;;;;;7.45;60.71;103128.44;5242653;28;20417;-44
2022/01/17 03:32:57;;;;;;;36.45;7.03;;;;;;;7.45;60.89;103138.94;5244826;28;20421;-44
2022/01/17 03:35:29;;;;;;;29.58;7.20;;;;;;;7.45;60.75;103139.78;5248250;28;20903;-44
2022/01/17 03:38:04;;;;;;;33.38;6.05;;;;;;;7.48;60.89;103136.19;5243420;28;20940;-45
2022/01/17 03:40:36;;;;;;;29.42;6.18;;;;;;;7.49;60.89;103135.25;5243570;28;20410;-44
2022/01/17 03:43:09;;;;;;;29.35;7.75;;;;;;;7.50;61.00;103136.97;5245645;28;20404;-43
2022/01/17 03:45:41;;;;;;;28.07;6.93;;;;;;;7.54;61.04;103146.41;5245651;28;20402;-44
2022/01/17 03:48:14;;;;;;;24.27;6.32;;;;;;;7.58;61.27;103153.22;5248097;28;20392;-50
2022/01/17 03:50:48;;;;;;;25.63;6.10;;;;;;;7.63;61.25;103156.47;5240885;28;20406;-46
2022/01/17 03:53:22;;;;;;;23.50;6.20;;;;;;;7.68;61.27;103162.38;5243759;28;20416;-44
2022/01/17 03:55:55;;;;;;;24.13;6.30;;;;;;;7.69;61.46;103156.19;5246469;28;20409;-45
2022/01/17 03:58:28;;;;;;;30.35;7.78;;;;;;;7.70;61.43;103160.50;5250307;28;20421;-44
2022/01/17 04:01:02;;;;;;;32.97;6.13;;;;;;;7.72;61.64;103169.19;5247698;28;20778;-44
2022/01/17 04:03:34;;;;;;;31.38;7.30;;;;;;;7.72;61.82;103174.44;5233536;28;20438;-43
2022/01/17 04:06:06;;;;;;;35.40;7.63;;;;;;;7.72;61.55;103177.09;5230940;28;20399;-46
2022/01/17 04:08:40;;;;;;;29.13;7.55;;;;;;;7.75;61.79;103168.19;5235139;28;20408;-44
2022/01/17 04:11:13;;;;;;;24.98;6.25;;;;;;;7.69;61.81;103153.56;5247816;28;20398;-44
2022/01/17 04:13:46;;;;;;;36.72;8.38;;;;;;;7.75;61.86;103158.53;5249918;28;20421;-44
2022/01/17 04:16:19;;;;;;;29.65;7.13;;;;;;;7.21;61.84;103068.22;5247004;28;20417;-44
2022/01/17 04:19:41;;;;;;;23.85;8.20;;;;;;;7.72;62.13;103163.94;5246766;28;20433;-43
2022/01/17 04:22:14;;;;;;;29.75;7.80;;;;;;;7.68;62.19;103159.75;5250585;28;20406;-44
2022/01/17 04:24:49;;;;;;;26.42;7.03;;;;;;;7.62;62.30;103146.91;5252199;28;20440;-46
2022/01/17 04:27:21;;;;;;;36.47;8.15;;;;;;;7.37;62.38;103116.50;5249499;28;20408;-43
2022/01/17 04:29:54;;;;;;;28.70;7.57;;;;;;;7.69;62.30;103158.81;5240965;28;20426;-43
2022/01/17 04:32:26;;;;;;;36.10;8.37;;;;;;;7.61;62.37;103155.69;5231105;28;20456;-44
2022/01/17 04:34:59;;;;;;;21.48;6.90;;;;;;;7.68;62.45;103162.38;5241297;28;20406;-44
2022/01/17 04:37:31;;;;;;;35.83;8.93;;;;;;;7.67;62.71;103154.56;5245946;28;20425;-44
2022/01/17 04:40:08;;;;;;;36.03;9.13;;;;;;;7.68;62.47;103162.38;5245742;28;20427;-44
2022/01/17 04:42:44;;;;;;;26.20;7.13;;;;;;;7.69;62.79;103179.00;5250402;28;20390;-44
2022/01/17 04:45:19;;;;;;;34.08;8.63;;;;;;;7.74;62.71;103177.00;5243411;28;20483;-46
2022/01/17 04:47:53;;;;;;;28.10;8.10;;;;;;;7.68;62.72;103161.50;5248799;28;20429;-44
2022/01/17 04:50:29;;;;;;;31.00;6.97;;;;;;;7.85;62.78;103172.91;5253403;28;20505;-44
2022/01/17 04:53:02;;;;;;;32.45;8.02;;;;;;;7.90;62.76;103159.56;5253788;28;20444;-44
2022/01/17 04:55:36;;;;;;;32.00;8.43;;;;;;;7.93;62.92;103171.69;5248341;28;20418;-44
2022/01/17 04:58:09;;;;;;;31.85;8.80;;;;;;;7.92;62.83;103159.47;5243236;28;20419;-45
2022/01/17 05:00:46;;;;;;;26.33;8.17;;;;;;;7.94;62.97;103163.72;5248225;28;20414;-44
2022/01/17 05:03:22;;;;;;;34.97;10.20;;;;;;;7.97;63.18;103168.00;5242649;28;20410;-49
2022/01/17 05:05:55;;;;;;;32.55;10.73;;;;;;;7.95;63.05;103162.78;5251516;28;20402;-44
2022/01/17 05:08:28;;;;;;;32.90;11.30;;;;;;;7.95;63.10;103169.84;5241595;28;21204;-46
2022/01/17 05:11:01;;;;;;;44.78;12.52;;;;;;;7.93;63.32;103171.69;5245548;28;20778;-45
2022/01/17 05:13:35;;;;;;;33.58;12.77;;;;;;;7.91;63.35;103178.81;5241842;28;20425;-44
2022/01/17 05:16:12;;;;;;;33.65;14.95;;;;;;;7.90;63.57;103177.09;5242620;28;20398;-46
2022/01/17 05:21:34;;;;;;;45.95;15.80;;;;;;;7.86;63.51;103179.88;5248156;28;20422;-44
2022/01/17 05:24:07;;;;;;;44.08;16.90;;;;;;;7.85;63.55;103183.44;5249909;28;20851;-44
2022/01/17 05:26:41;;;;;;;42.40;16.85;;;;;;;7.87;63.55;103196.53;5247724;28;20402;-44
2022/01/17 05:29:13;;;;;;;36.28;18.73;;;;;;;7.89;63.49;103191.19;5246613;28;20805;-45
2022/01/17 05:31:46;;;;;;;41.78;19.38;;;;;;;7.90;63.56;103185.00;5248267;28;20408;-48
2022/01/17 05:34:18;;;;;;;42.73;18.77;;;;;;;7.91;63.63;103187.56;5241414;28;20404;-44
2022/01/17 05:36:50;;;;;;;37.63;18.17;;;;;;;7.91;63.63;103184.09;5248953;28;20413;-44
2022/01/17 05:39:23;;;;;;;28.67;15.70;;;;;;;7.88;63.70;103178.97;5244622;28;20776;-44
2022/01/17 05:41:57;;;;;;;39.42;17.83;;;;;;;7.88;63.63;103194.75;5245781;28;20535;-43
2022/01/17 05:44:29;;;;;;;38.53;16.10;;;;;;;7.81;63.91;103184.53;5248918;28;20400;-45
2022/01/17 05:47:02;;;;;;;33.38;17.08;;;;;;;7.82;63.92;103186.22;5243852;28;20426;-44
2022/01/17 05:49:34;;;;;;;38.40;16.07;;;;;;;7.82;63.93;103188.84;5247410;28;20421;-49
2022/01/17 05:52:07;;;;;;;35.63;15.73;;;;;;;7.80;64.10;103188.09;5246398;28;20992;-47
2022/01/17 05:54:41;;;;;;;37.77;13.20;;;;;;;7.78;64.09;103187.31;5246885;28;20764;-46
2022/01/17 05:57:16;;;;;;;34.03;12.13;;;;;;;7.74;64.15;103198.91;5249799;28;20416;-52
2022/01/17 05:59:49;;;;;;;30.33;12.90;;;;;;;7.72;64.08;103206.00;5248106;28;20408;-46
2022/01/17 06:02:21;;;;;;;26.42;11.95;;;;;;;7.72;64.24;103198.13;5240815;28;20434;-46
2022/01/17 06:04:54;;;;;;;33.55;11.63;;;;;;;7.72;64.19;103194.66;5247216;28;20413;-46
2022/01/17 06:07:26;;;;;;;22.98;11.18;;;;;;;7.71;64.16;103188.53;5244267;28;20410;-45
2022/01/17 06:09:59;;;;;;;46.38;12.15;;;;;;;7.70;64.22;103185.97;5248104;28;20748;-45
2022/01/17 06:12:32;;;;;;;35.58;11.70;;;;;;;7.69;64.29;103184.28;5239605;28;20419;-45
2022/01/17 06:15:05;;;;;;;31.33;12.57;;;;;;;7.61;64.07;103180.22;5247227;28;20783;-46
2022/01/17 06:17:38;;;;;;;35.03;11.63;;;;;;;7.66;64.25;103185.25;5243579;28;20438;-44
2022/01/17 06:20:11;;;;;;;22.55;10.35;;;;;;;7.63;64.29;103186.25;5232428;28;20881;-44
2022/01/17 06:22:44;;;;;;;39.90;11.60;;;;;;;7.61;64.33;103197.78;5235172;28;20412;-43
2022/01/17 06:25:16;;;;;;;43.97;11.98;;;;;;;7.60;64.54;103198.72;5249251;28;20889;-44
2022/01/17 06:27:50;;;;;;;44.45;11.30;;;;;;;7.62;64.41;103202.13;5230277;28;20501;-45
2022/01/17 06:30:23;;;;;;;45.17;11.70;;;;;;;7.66;64.38;103195.78;5240258;28;20972;-44
2022/01/17 06:32:55;;;;;;;40.65;12.10;;;;;;;7.71;64.49;103203.44;5251739;28;20410;-44
2022/01/17 06:35:27;;;;;;;43.60;12.55;;;;;;;7.73;64.50;103217.38;5252498;28;20783;-45
2022/01/17 06:38:00;;;;;;;43.05;12.45;;;;;;;7.76;64.53;103212.81;5250485;28;20420;-45
2022/01/17 06:40:32;;;;;;;42.80;11.05;;;;;;;7.80;64.44;103224.94;5250115;28;20444;-45
2022/01/17 06:43:08;;;;;;;37.47;11.13;;;;;;;7.85;64.47;103212.38;5243860;28;20431;-44
2022/01/17 06:45:40;;;;;;;38.63;9.60;;;;;;;7.88;64.35;103216.66;5237448;28;20481;-45
2022/01/17 06:48:13;;;;;;;33.33;9.18;;;;;;;7.74;64.28;103209.44;5234184;28;20412;-45
2022/01/17 06:50:45;;;;;;;33.33;8.93;;;;;;;7.92;64.47;103220.84;5233522;28;20905;-47
2022/01/17 06:53:17;;;;;;;38.87;8.73;;;;;;;7.96;64.52;103245.22;5238372;28;20402;-54
2022/01/17 06:55:50;;;;;;;40.08;9.82;;;;;;;8.00;64.45;103241.53;5247935;28;20469;-45
2022/01/17 06:58:24;;;;;;;38.05;8.50;;;;;;;8.03;64.55;103257.16;5241815;28;20422;-44
2022/01/17 07:00:56;;;;;;;37.25;9.85;;;;;;;8.05;64.53;103268.44;5240394;28;20408;-44
2022/01/17 07:03:29;;;;;;;35.85;9.05;;;;;;;8.08;64.47;103298.13;5230440;28;20474;-43
2022/01/17 07:06:01;;;;;;;42.08;9.18;;;;;;;8.10;64.62;103300.69;5232491;28;20893;-43
2022/01/17 07:08:33;;;;;;;36.28;8.75;;;;;;;8.15;64.47;103298.69;5239822;28;20420;-43
2022/01/17 07:11:06;;;;;;;36.22;9.00;;;;;;;8.17;64.64;103293.34;5237962;28;20761;-44
2022/01/17 07:13:40;;;;;;;35.65;9.85;;;;;;;8.18;64.79;103290.66;5247733;28;20865;-44
2022/01/17 07:16:12;;;;;;;32.53;7.63;;;;;;;8.20;64.70;103294.03;5249850;28;20408;-43
2022/01/17 07:18:44;;;;;;;38.10;8.40;;;;;;;8.23;64.56;103288.63;5249850;28;20449;-43
2022/01/17 07:21:16;;;;;;;37.28;9.02;;;;;;;8.26;64.64;103280.59;5242177;28;20402;-44
2022/01/17 07:23:49;;;;;;;40.45;9.38;;;;;;;8.29;64.62;103267.25;5242254;28;20472;-44
2022/01/17 07:26:21;;;;;;;39.90;10.15;;;;;;;8.32;64.71;103280.28;5246922;28;20475;-44
2022/01/17 07:28:55;;;;;;;34.30;8.57;;;;;;;8.34;64.55;103287.28;5241224;28;20422;-46
2022/01/17 07:31:27;;;;;;;36.97;8.63;;;;;;;8.34;64.58;103290.75;5245906;28;20541;-43
2022/01/17 07:34:00;;;;;;;32.90;9.10;;;;;;;8.35;64.70;103296.88;5236701;28;20412;-43
2022/01/17 07:36:33;;;;;;;40.22;8.27;;;;;;;8.37;64.68;103300.28;5233485;28;20912;-44
2022/01/17 07:39:05;;;;;;;32.22;8.32;;;;;;;8.39;64.79;103311.59;5242087;28;20419;-43
2022/01/17 07:41:38;;;;;;;37.35;8.93;;;;;;;8.41;64.76;103304.50;5247952;28;20426;-45
2022/01/17 07:44:19;;;;;;;36.97;10.60;;;;;;;8.43;64.82;103308.78;5241844;28;20775;-43
2022/01/17 07:46:55;;;;;;;40.08;9.30;;;;;;;8.45;64.68;103301.63;5248129;28;20875;-43
2022/01/17 07:49:29;;;;;;;36.03;8.00;;;;;;;8.48;64.68;103308.53;5233563;28;20414;-43
2022/01/17 07:52:06;;;;;;;30.13;8.00;;;;;;;8.49;64.54;103305.84;5245964;28;20403;-43
2022/01/17 07:54:43;;;;;;;31.80;7.38;;;;;;;8.51;64.59;103314.50;5249039;28;20481;-44
2022/01/17 07:57:16;;;;;;;35.50;9.18;;;;;;;8.52;64.66;103313.59;5246258;28;20451;-45
2022/01/17 07:59:49;;;;;;;43.35;9.00;;;;;;;8.57;64.54;103315.13;5241911;28;20473;-45
2022/01/17 08:02:22;;;;;;;42.85;9.18;;;;;;;8.58;64.61;103308.91;5248059;28;20416;-47
2022/01/17 08:04:54;;;;;;;44.97;9.32;;;;;;;8.60;64.51;103310.56;5248563;28;20405;-44
2022/01/17 08:07:26;;;;;;;38.17;8.32;;;;;;;8.64;64.51;103305.97;5249721;28;20418;-48
2022/01/17 08:09:59;;;;;;;32.03;7.97;;;;;;;8.67;64.59;103305.81;5251852;28;20414;-44
2022/01/17 08:12:31;;;;;;;45.45;9.68;;;;;;;8.67;64.60;103306.72;5250531;28;20410;-50
2022/01/17 08:15:06;;;;;;;40.05;8.07;;;;;;;8.70;64.49;103306.56;5234948;28;20415;-44
2022/01/17 08:17:38;;;;;;;30.02;7.90;;;;;;;8.73;64.47;103314.31;5235485;28;20489;-45
2022/01/17 08:20:11;;;;;;;33.15;7.75;;;;;;;8.77;64.41;103317.63;5234666;28;20952;-47
2022/01/17 08:22:45;;;;;;;46.15;8.57;;;;;;;8.78;64.45;103314.06;5241187;28;20416;-43
2022/01/17 08:25:18;;;;;;;48.88;8.68;;;;;;;8.78;64.44;103314.91;5232986;28;20471;-47
2022/01/17 08:27:50;;;;;;;29.15;7.32;;;;;;;8.82;64.43;103315.59;5238590;28;20455;-43
2022/01/17 08:30:24;;;;;;;39.35;8.52;;;;;;;8.81;64.59;103323.59;5255799;28;20504;-43
2022/01/17 08:32:57;;;;;;;43.13;9.10;;;;;;;8.83;64.51;103327.03;5254556;28;20410;-43
2022/01/17 08:35:29;;;;;;;33.63;8.25;;;;;;;8.84;64.61;103333.97;5253400;28;20972;-43
2022/01/17 08:38:02;;;;;;;36.33;7.85;;;;;;;8.87;64.51;103329.41;5246015;28;20427;-43
2022/01/17 08:40:34;;;;;;;34.13;7.40;;;;;;;8.89;64.45;103324.91;5241583;28;20406;-43
2022/01/17 08:43:07;;;;;;;33.43;7.77;;;;;;;8.90;64.28;103323.13;5249875;28;20510;-44
2022/01/17 08:45:41;;;;;;;37.55;7.60;;;;;;;8.93;64.49;103317.72;5245232;28;20408;-42
2022/01/17 08:48:13;;;;;;;32.17;7.57;;;;;;;8.97;64.59;103327.16;5251987;28;20420;-43
2022/01/17 08:50:47;;;;;;;31.02;6.97;;;;;;;9.00;64.41;103334.91;5248568;28;20489;-43
2022/01/17 08:53:19;;;;;;;32.45;7.05;;;;;;;9.03;64.56;103337.38;5246460;28;20422;-43
2022/01/17 08:56:18;;;;;;;25.85;6.80;;;;;;;9.06;64.41;103345.13;5249820;28;20410;-43
2022/01/17 08:58:50;;;;;;;40.08;7.13;;;;;;;9.06;64.57;103339.88;5239108;28;20408;-46
2022/01/17 09:01:24;;;;;;;39.33;8.65;;;;;;;9.09;64.53;103349.41;5254138;28;20402;-44
2022/01/17 09:03:56;;;;;;;35.25;7.82;;;;;;;9.12;64.50;103354.50;5253201;28;20414;-44
2022/01/17 09:06:29;;;;;;;36.55;7.97;;;;;;;9.15;64.62;103349.94;5253985;28;20402;-44
2022/01/17 09:09:01;;;;;;;27.10;6.68;;;;;;;9.18;64.49;103357.69;5251713;28;20424;-44
2022/01/17 09:11:33;;;;;;;35.43;7.27;;;;;;;9.20;64.45;103358.47;5254775;28;20500;-44
2022/01/17 09:14:07;;;;;;;33.30;7.20;;;;;;;9.23;64.54;103368.00;5253549;28;20417;-44
2022/01/17 09:16:40;;;;;;;33.10;7.90;;;;;;;9.25;64.41;103363.50;5249361;28;20386;-44
2022/01/17 09:19:13;;;;;;;32.83;7.78;;;;;;;9.29;64.58;103366.81;5253651;28;20397;-45
2022/01/17 09:21:45;;;;;;;33.42;7.32;;;;;;;9.33;64.51;103376.31;5254922;28;20762;-44
2022/01/17 09:24:17;;;;;;;37.13;7.70;;;;;;;9.35;64.57;103370.03;5250934;28;20453;-46
2022/01/17 09:26:50;;;;;;;29.02;6.22;;;;;;;9.37;64.48;103375.19;5254604;28;20750;-44
2022/01/17 09:29:22;;;;;;;31.88;6.90;;;;;;;9.39;64.45;103381.25;5241147;28;20416;-44
2022/01/17 09:31:56;;;;;;;33.80;7.53;;;;;;;9.43;64.45;103393.34;5233926;28;20427;-44
2022/01/17 09:34:28;;;;;;;45.78;8.57;;;;;;;9.48;64.55;103388.69;5234211;28;20400;-44
2022/01/17 09:37:01;;;;;;;29.23;7.78;;;;;;;9.53;64.44;103391.06;5236567;28;20421;-44
2022/01/17 09:39:34;;;;;;;33.63;6.63;;;;;;;9.57;64.28;103393.50;5254850;28;20437;-44
2022/01/17 09:42:08;;;;;;;37.00;7.57;;;;;;;9.62;64.30;103391.44;5251692;28;20426;-44
2022/01/17 09:44:40;;;;;;;33.50;7.47;;;;;;;9.65;64.23;103400.97;5250355;28;20407;-43
2022/01/17 09:47:14;;;;;;;35.85;7.30;;;;;;;9.68;64.23;103406.94;5253792;28;20428;-43
2022/01/17 09:49:53;;;;;;;26.30;6.07;;;;;;;9.74;64.22;103410.22;5251295;28;20409;-43
2022/01/17 09:52:35;;;;;;;30.33;7.45;;;;;;;9.78;64.10;103422.28;5251047;28;20410;-43
2022/01/17 09:55:13;;;;;;;31.42;7.13;;;;;;;9.80;64.11;103420.44;5244310;28;20477;-43
2022/01/17 09:57:49;;;;;;;37.00;7.90;;;;;;;9.82;64.12;103423.88;5236916;28;20462;-44
2022/01/17 10:00:26;;;;;;;33.55;7.57;;;;;;;9.83;64.20;103426.41;5242114;28;20418;-43
2022/01/17 10:03:05;;;;;;;29.80;6.35;;;;;;;9.89;63.95;103441.91;5242804;28;20430;-47
2022/01/17 10:05:39;;;;;;;40.10;8.23;;;;;;;9.89;63.97;103436.63;5252602;28;20447;-44
2022/01/17 10:08:16;;;;;;;30.40;6.85;;;;;;;9.91;64.04;103434.78;5242203;28;20392;-45
2022/01/17 10:10:56;;;;;;;36.15;7.40;;;;;;;9.95;64.11;103442.53;5245783;28;20413;-48
2022/01/17 10:13:32;;;;;;;29.05;7.10;;;;;;;10.01;63.89;103445.69;5242424;28;20406;-46
2022/01/17 10:16:07;;;;;;;27.92;6.93;;;;;;;10.01;63.98;103448.34;5245668;28;20421;-44
2022/01/17 10:18:45;;;;;;;29.50;6.25;;;;;;;10.02;63.96;103451.81;5247580;28;20403;-45
2022/01/17 10:21:32;;;;;;;38.45;7.78;;;;;;;9.99;63.96;103446.69;5246998;28;20410;-45
2022/01/17 10:24:18;;;;;;;25.13;7.25;;;;;;;10.09;64.05;103451.41;5251393;28;20963;-45
2022/01/17 10:27:08;;;;;;;32.53;8.03;;;;;;;10.13;63.70;103458.25;5247194;28;20570;-43
2022/01/17 10:35:31;;;;;;;28.30;6.72;;;;;;;10.23;63.80;103463.03;5245375;28;20397;-48
2022/01/17 10:38:10;;;;;;;41.28;7.97;;;;;;;10.25;63.81;103463.78;5239623;28;20415;-44
2022/01/17 10:40:46;;;;;;;27.97;5.20;;;;;;;10.29;63.70;103474.13;5246972;28;20447;-44
2022/01/17 10:43:25;;;;;;;36.28;7.53;;;;;;;10.31;63.86;103469.63;5245067;28;20405;-53
2022/01/17 10:45:58;;;;;;;27.15;6.60;;;;;;;10.36;63.67;103466.72;5247394;28;20421;-42
2022/01/17 10:48:34;;;;;;;33.35;6.38;;;;;;;10.39;63.68;103462.13;5252108;28;20859;-43
2022/01/17 10:51:09;;;;;;;29.30;7.47;;;;;;;10.48;63.66;103466.06;5250120;28;20421;-43
2022/01/17 10:53:43;;;;;;;30.80;6.95;;;;;;;10.57;63.47;103454.97;5252694;28;20406;-42
2022/01/17 10:56:16;;;;;;;27.70;7.95;;;;;;;10.66;63.36;103455.41;5238986;28;20881;-46
2022/01/17 10:58:48;;;;;;;31.92;7.85;;;;;;;10.76;63.30;103459.22;5242998;28;20406;-47
2022/01/17 11:01:21;;;;;;;32.30;7.45;;;;;;;10.84;63.12;103462.31;5240400;28;20406;-43
2022/01/17 11:03:59;;;;;;;39.90;7.75;;;;;;;10.91;63.14;103474.22;5244774;28;20418;-42
2022/01/17 11:06:33;;;;;;;28.60;6.07;;;;;;;11.00;62.96;103467.56;5250264;28;20510;-43
2022/01/17 11:09:07;;;;;;;28.02;6.25;;;;;;;11.02;63.04;103479.72;5248396;28;20419;-42
2022/01/17 11:11:40;;;;;;;27.38;6.50;;;;;;;11.07;62.81;103487.41;5236343;28;20419;-46
2022/01/17 11:14:15;;;;;;;28.92;6.07;;;;;;;11.08;62.98;103491.75;5234216;28;20422;-43
2022/01/17 11:16:47;;;;;;;28.10;7.60;;;;;;;11.07;62.88;103490.06;5251195;28;20405;-46
2022/01/17 11:22:11;;;;;;;21.27;5.28;;;;;;;11.05;62.84;103497.22;5232163;28;20770;-45
2022/01/17 11:24:44;;;;;;;35.95;6.85;;;;;;;11.06;62.90;103509.53;5229497;28;20485;-47
2022/01/17 11:27:16;;;;;;;32.60;7.00;;;;;;;11.05;62.71;103503.34;5233509;28;20429;-43
2022/01/17 11:29:49;;;;;;;33.25;5.97;;;;;;;11.03;62.63;103494.69;5229613;28;20418;-47
2022/01/17 11:32:22;;;;;;;22.55;6.47;;;;;;;11.03;62.66;103494.69;5232381;28;20430;-41
2022/01/17 11:34:58;;;;;;;29.48;6.22;;;;;;;11.12;62.56;103503.00;5242421;28;20485;-48
2022/01/17 11:37:38;;;;;;;29.80;6.95;;;;;;;11.08;62.61;103504.97;5247378;28;20406;-43
2022/01/17 11:40:14;;;;;;;27.27;6.65;;;;;;;11.06;62.63;103494.50;5248425;28;20876;-43
2022/01/17 11:42:48;;;;;;;39.38;7.07;;;;;;;11.07;62.60;103509.41;5247379;28;20402;-43
2022/01/17 11:45:40;;;;;;;29.05;6.35;;;;;;;11.06;62.61;103507.72;5250095;28;20426;-45
2022/01/17 11:48:27;;;;;;;24.05;6.00;;;;;;;11.10;62.55;103499.63;5243210;28;20434;-48
2022/01/17 11:51:32;;;;;;;23.45;5.75;;;;;;;11.11;62.50;103501.31;5235332;28;20392;-43
2022/01/17 11:54:14;;;;;;;45.38;7.53;;;;;;;11.12;62.48;103508.28;5248841;28;20406;-43
2022/01/17 11:56:51;;;;;;;30.88;6.53;;;;;;;11.15;62.49;103524.00;5252445;28;20496;-42
2022/01/17 11:59:40;;;;;;;38.75;7.40;;;;;;;11.20;62.45;103521.94;5251043;28;20398;-42
2022/01/17 12:02:27;;;;;;;34.88;7.28;;;;;;;11.26;62.33;103535.66;5251210;28;20474;-43
2022/01/17 12:05:45;;;;;;;27.80;6.33;;;;;;;11.36;62.23;103533.34;5250831;28;20401;-43
2022/01/17 12:08:21;;;;;;;37.15;8.10;;;;;;;11.24;62.30;103523.47;5227761;28;20402;-43
2022/01/17 12:10:59;;;;;;;29.85;6.30;;;;;;;11.29;62.21;103524.91;5253773;28;20429;-43
2022/01/17 12:13:43;;;;;;;28.97;6.53;;;;;;;11.31;62.27;103528.31;5256449;28;20485;-43